sensor_id;sensor_type;location;lat;lon;timestamp;temperature;humidity
67722;SHT31;58309;45.292;11.820;2023-06-22T00:01:18;23.61;88.56
67722;SHT31;58309;45.292;11.820;2023-06-22T00:03:44;23.64;88.74
67722;SHT31;58309;45.292;11.820;2023-06-22T00:06:09;23.60;88.62
67722;SHT31;58309;45.292;11.820;2023-06-22T00:08:35;23.61;88.67
67722;SHT31;58309;45.292;11.820;2023-06-22T00:11:00;23.61;88.63
67722;SHT31;58309;45.292;11.820;2023-06-22T00:13:25;23.57;88.66
67722;SHT31;58309;45.292;11.820;2023-06-22T00:15:51;23.54;89.19
67722;SHT31;58309;45.292;11.820;2023-06-22T00:18:16;23.50;89.10
67722;SHT31;58309;45.292;11.820;2023-06-22T00:20:42;23.47;89.65
67722;SHT31;58309;45.292;11.820;2023-06-22T00:23:07;23.43;89.40
67722;SHT31;58309;45.292;11.820;2023-06-22T00:25:37;23.42;89.70
67722;SHT31;58309;45.292;11.820;2023-06-22T00:28:03;23.49;89.83
67722;SHT31;58309;45.292;11.820;2023-06-22T00:30:30;23.43;89.85
67722;SHT31;58309;45.292;11.820;2023-06-22T00:32:56;23.42;89.74
67722;SHT31;58309;45.292;11.820;2023-06-22T00:35:22;23.39;89.84
67722;SHT31;58309;45.292;11.820;2023-06-22T00:37:47;23.34;89.89
67722;SHT31;58309;45.292;11.820;2023-06-22T00:40:13;23.34;90.29
67722;SHT31;58309;45.292;11.820;2023-06-22T00:42:40;23.34;90.31
67722;SHT31;58309;45.292;11.820;2023-06-22T00:45:06;23.30;90.01
67722;SHT31;58309;45.292;11.820;2023-06-22T00:47:34;23.30;90.17
67722;SHT31;58309;45.292;11.820;2023-06-22T00:49:59;23.31;90.28
67722;SHT31;58309;45.292;11.820;2023-06-22T00:52:26;23.27;90.06
67722;SHT31;58309;45.292;11.820;2023-06-22T00:54:56;23.27;90.36
67722;SHT31;58309;45.292;11.820;2023-06-22T00:57:22;23.23;90.24
67722;SHT31;58309;45.292;11.820;2023-06-22T00:59:53;23.20;90.24
67722;SHT31;58309;45.292;11.820;2023-06-22T01:02:19;23.16;90.37
67722;SHT31;58309;45.292;11.820;2023-06-22T01:04:44;23.12;90.43
67722;SHT31;58309;45.292;11.820;2023-06-22T01:10:21;23.07;90.46
67722;SHT31;58309;45.292;11.820;2023-06-22T01:12:53;23.05;90.38
67722;SHT31;58309;45.292;11.820;2023-06-22T01:17:52;23.16;90.69
67722;SHT31;58309;45.292;11.820;2023-06-22T01:20:20;23.14;90.55
67722;SHT31;58309;45.292;11.820;2023-06-22T01:30:46;23.09;90.04
67722;SHT31;58309;45.292;11.820;2023-06-22T01:33:13;23.02;90.67
67722;SHT31;58309;45.292;11.820;2023-06-22T01:35:39;22.95;90.95
67722;SHT31;58309;45.292;11.820;2023-06-22T01:38:06;22.89;90.89
67722;SHT31;58309;45.292;11.820;2023-06-22T01:40:33;22.82;91.08
67722;SHT31;58309;45.292;11.820;2023-06-22T01:43:01;22.76;91.01
67722;SHT31;58309;45.292;11.820;2023-06-22T01:45:28;22.71;91.11
67722;SHT31;58309;45.292;11.820;2023-06-22T01:47:54;22.66;91.25
67722;SHT31;58309;45.292;11.820;2023-06-22T01:50:20;22.62;91.34
67722;SHT31;58309;45.292;11.820;2023-06-22T01:52:46;22.58;91.53
67722;SHT31;58309;45.292;11.820;2023-06-22T01:55:11;22.55;91.61
67722;SHT31;58309;45.292;11.820;2023-06-22T01:57:37;22.52;91.60
67722;SHT31;58309;45.292;11.820;2023-06-22T02:00:18;22.49;91.50
67722;SHT31;58309;45.292;11.820;2023-06-22T02:05:16;22.52;91.24
67722;SHT31;58309;45.292;11.820;2023-06-22T02:07:49;22.49;91.15
67722;SHT31;58309;45.292;11.820;2023-06-22T02:10:19;22.55;91.11
67722;SHT31;58309;45.292;11.820;2023-06-22T02:12:46;22.52;90.98
67722;SHT31;58309;45.292;11.820;2023-06-22T02:15:13;22.54;90.87
67722;SHT31;58309;45.292;11.820;2023-06-22T02:17:39;22.55;90.93
67722;SHT31;58309;45.292;11.820;2023-06-22T02:20:12;22.56;91.00
67722;SHT31;58309;45.292;11.820;2023-06-22T02:22:38;22.59;90.60
67722;SHT31;58309;45.292;11.820;2023-06-22T02:25:04;22.58;90.42
67722;SHT31;58309;45.292;11.820;2023-06-22T02:27:29;22.58;90.16
67722;SHT31;58309;45.292;11.820;2023-06-22T02:29:55;22.64;90.53
67722;SHT31;58309;45.292;11.820;2023-06-22T02:32:20;22.68;89.98
67722;SHT31;58309;45.292;11.820;2023-06-22T02:34:46;22.69;89.91
67722;SHT31;58309;45.292;11.820;2023-06-22T02:37:13;22.71;89.51
67722;SHT31;58309;45.292;11.820;2023-06-22T02:39:40;22.71;89.99
67722;SHT31;58309;45.292;11.820;2023-06-22T02:42:05;22.73;89.53
67722;SHT31;58309;45.292;11.820;2023-06-22T02:44:31;22.77;89.41
67722;SHT31;58309;45.292;11.820;2023-06-22T02:46:56;22.76;89.19
67722;SHT31;58309;45.292;11.820;2023-06-22T02:49:22;22.75;89.25
67722;SHT31;58309;45.292;11.820;2023-06-22T02:51:48;22.72;89.07
67722;SHT31;58309;45.292;11.820;2023-06-22T02:54:13;22.72;89.57
67722;SHT31;58309;45.292;11.820;2023-06-22T02:56:39;22.71;89.32
67722;SHT31;58309;45.292;11.820;2023-06-22T02:59:06;22.64;89.32
67722;SHT31;58309;45.292;11.820;2023-06-22T03:01:31;22.58;89.35
67722;SHT31;58309;45.292;11.820;2023-06-22T03:04:03;22.55;89.84
67722;SHT31;58309;45.292;11.820;2023-06-22T03:06:30;22.54;90.39
67722;SHT31;58309;45.292;11.820;2023-06-22T03:09:04;22.52;90.10
67722;SHT31;58309;45.292;11.820;2023-06-22T03:11:31;22.51;90.47
67722;SHT31;58309;45.292;11.820;2023-06-22T03:13:57;22.45;90.37
67722;SHT31;58309;45.292;11.820;2023-06-22T03:16:23;22.38;90.03
67722;SHT31;58309;45.292;11.820;2023-06-22T03:18:48;22.38;90.31
67722;SHT31;58309;45.292;11.820;2023-06-22T03:21:14;22.37;90.50
67722;SHT31;58309;45.292;11.820;2023-06-22T03:23:41;22.33;90.70
67722;SHT31;58309;45.292;11.820;2023-06-22T03:26:06;22.34;90.52
67722;SHT31;58309;45.292;11.820;2023-06-22T03:28:33;22.30;90.58
67722;SHT31;58309;45.292;11.820;2023-06-22T03:30:59;22.27;90.54
67722;SHT31;58309;45.292;11.820;2023-06-22T03:33:24;22.30;90.46
67722;SHT31;58309;45.292;11.820;2023-06-22T03:35:49;22.27;90.58
67722;SHT31;58309;45.292;11.820;2023-06-22T03:38:16;22.28;90.24
67722;SHT31;58309;45.292;11.820;2023-06-22T03:40:41;22.30;90.54
67722;SHT31;58309;45.292;11.820;2023-06-22T03:43:07;22.33;90.08
67722;SHT31;58309;45.292;11.820;2023-06-22T03:45:32;22.35;90.01
67722;SHT31;58309;45.292;11.820;2023-06-22T03:47:57;22.34;90.04
67722;SHT31;58309;45.292;11.820;2023-06-22T03:50:23;22.33;90.22
67722;SHT31;58309;45.292;11.820;2023-06-22T03:52:48;22.31;90.10
67722;SHT31;58309;45.292;11.820;2023-06-22T03:55:14;22.31;90.07
67722;SHT31;58309;45.292;11.820;2023-06-22T03:57:39;22.31;89.90
67722;SHT31;58309;45.292;11.820;2023-06-22T04:00:05;22.33;89.79
67722;SHT31;58309;45.292;11.820;2023-06-22T04:02:31;22.35;89.60
67722;SHT31;58309;45.292;11.820;2023-06-22T04:04:56;22.35;89.50
67722;SHT31;58309;45.292;11.820;2023-06-22T04:07:22;22.42;89.68
67722;SHT31;58309;45.292;11.820;2023-06-22T04:09:47;22.47;89.49
67722;SHT31;58309;45.292;11.820;2023-06-22T04:12:13;22.54;88.81
67722;SHT31;58309;45.292;11.820;2023-06-22T04:14:38;22.56;88.61
67722;SHT31;58309;45.292;11.820;2023-06-22T04:17:04;22.68;88.73
67722;SHT31;58309;45.292;11.820;2023-06-22T04:19:29;22.73;88.62
67722;SHT31;58309;45.292;11.820;2023-06-22T04:21:55;22.82;88.76
67722;SHT31;58309;45.292;11.820;2023-06-22T04:24:20;22.91;88.03
67722;SHT31;58309;45.292;11.820;2023-06-22T04:26:46;22.96;87.81
67722;SHT31;58309;45.292;11.820;2023-06-22T04:29:12;23.03;87.76
67722;SHT31;58309;45.292;11.820;2023-06-22T04:31:37;23.12;87.83
67722;SHT31;58309;45.292;11.820;2023-06-22T04:34:04;23.22;87.31
67722;SHT31;58309;45.292;11.820;2023-06-22T04:36:41;23.34;86.90
67722;SHT31;58309;45.292;11.820;2023-06-22T04:39:09;23.49;87.27
67722;SHT31;58309;45.292;11.820;2023-06-22T04:41:40;23.67;86.57
67722;SHT31;58309;45.292;11.820;2023-06-22T04:44:15;23.81;86.37
67722;SHT31;58309;45.292;11.820;2023-06-22T04:46:53;23.98;85.40
67722;SHT31;58309;45.292;11.820;2023-06-22T04:49:34;24.21;85.11
67722;SHT31;58309;45.292;11.820;2023-06-22T04:52:10;24.37;83.93
67722;SHT31;58309;45.292;11.820;2023-06-22T04:54:37;24.60;83.30
67722;SHT31;58309;45.292;11.820;2023-06-22T04:57:05;24.76;82.76
67722;SHT31;58309;45.292;11.820;2023-06-22T04:59:35;24.88;82.58
67722;SHT31;58309;45.292;11.820;2023-06-22T05:02:02;25.04;82.07
67722;SHT31;58309;45.292;11.820;2023-06-22T05:04:29;25.15;82.15
67722;SHT31;58309;45.292;11.820;2023-06-22T05:06:57;25.21;81.60
67722;SHT31;58309;45.292;11.820;2023-06-22T05:09:22;25.32;81.43
67722;SHT31;58309;45.292;11.820;2023-06-22T05:11:48;25.32;80.77
67722;SHT31;58309;45.292;11.820;2023-06-22T05:14:14;25.35;80.74
67722;SHT31;58309;45.292;11.820;2023-06-22T05:16:41;25.42;80.36
67722;SHT31;58309;45.292;11.820;2023-06-22T05:19:07;25.51;80.38
67722;SHT31;58309;45.292;11.820;2023-06-22T05:21:33;25.57;79.33
67722;SHT31;58309;45.292;11.820;2023-06-22T05:23:58;25.65;79.27
67722;SHT31;58309;45.292;11.820;2023-06-22T05:26:28;25.62;79.33
67722;SHT31;58309;45.292;11.820;2023-06-22T05:28:54;25.62;79.06
67722;SHT31;58309;45.292;11.820;2023-06-22T05:31:20;25.46;79.21
67722;SHT31;58309;45.292;11.820;2023-06-22T05:33:46;25.58;79.22
67722;SHT31;58309;45.292;11.820;2023-06-22T05:36:12;25.57;77.89
67722;SHT31;58309;45.292;11.820;2023-06-22T05:38:39;25.57;79.63
67722;SHT31;58309;45.292;11.820;2023-06-22T05:41:04;25.61;78.52
67722;SHT31;58309;45.292;11.820;2023-06-22T05:43:30;25.69;77.96
67722;SHT31;58309;45.292;11.820;2023-06-22T05:45:56;25.82;78.40
67722;SHT31;58309;45.292;11.820;2023-06-22T05:48:22;25.86;78.41
67722;SHT31;58309;45.292;11.820;2023-06-22T05:50:47;25.92;77.98
67722;SHT31;58309;45.292;11.820;2023-06-22T05:53:13;26.02;77.28
67722;SHT31;58309;45.292;11.820;2023-06-22T05:55:38;26.17;76.30
67722;SHT31;58309;45.292;11.820;2023-06-22T05:58:04;26.26;76.50
67722;SHT31;58309;45.292;11.820;2023-06-22T06:00:29;26.27;76.53
67722;SHT31;58309;45.292;11.820;2023-06-22T06:02:55;26.43;75.85
67722;SHT31;58309;45.292;11.820;2023-06-22T06:05:20;26.60;75.51
67722;SHT31;58309;45.292;11.820;2023-06-22T06:07:46;26.65;75.16
67722;SHT31;58309;45.292;11.820;2023-06-22T06:10:12;26.68;74.95
67722;SHT31;58309;45.292;11.820;2023-06-22T06:12:37;26.84;75.51
67722;SHT31;58309;45.292;11.820;2023-06-22T06:15:04;27.02;74.99
67722;SHT31;58309;45.292;11.820;2023-06-22T06:17:30;27.33;74.97
67722;SHT31;58309;45.292;11.820;2023-06-22T06:19:56;27.42;72.86
67722;SHT31;58309;45.292;11.820;2023-06-22T06:22:21;27.63;71.86
67722;SHT31;58309;45.292;11.820;2023-06-22T06:24:49;27.74;72.07
67722;SHT31;58309;45.292;11.820;2023-06-22T06:27:14;27.98;70.39
67722;SHT31;58309;45.292;11.820;2023-06-22T06:29:40;28.22;71.15
67722;SHT31;58309;45.292;11.820;2023-06-22T06:32:05;28.14;69.90
67722;SHT31;58309;45.292;11.820;2023-06-22T06:34:31;28.13;69.99
67722;SHT31;58309;45.292;11.820;2023-06-22T06:36:57;28.28;70.07
67722;SHT31;58309;45.292;11.820;2023-06-22T06:39:22;28.35;71.02
67722;SHT31;58309;45.292;11.820;2023-06-22T06:41:48;28.21;70.81
67722;SHT31;58309;45.292;11.820;2023-06-22T06:44:13;28.42;71.24
67722;SHT31;58309;45.292;11.820;2023-06-22T06:46:39;28.44;72.04
67722;SHT31;58309;45.292;11.820;2023-06-22T06:49:04;28.52;70.16
67722;SHT31;58309;45.292;11.820;2023-06-22T06:51:29;28.69;70.44
67722;SHT31;58309;45.292;11.820;2023-06-22T06:53:55;28.61;70.67
67722;SHT31;58309;45.292;11.820;2023-06-22T06:56:20;28.66;70.53
67722;SHT31;58309;45.292;11.820;2023-06-22T06:58:46;29.02;69.63
67722;SHT31;58309;45.292;11.820;2023-06-22T07:01:12;29.12;68.62
67722;SHT31;58309;45.292;11.820;2023-06-22T07:03:38;29.29;68.47
67722;SHT31;58309;45.292;11.820;2023-06-22T07:06:03;29.20;67.04
67722;SHT31;58309;45.292;11.820;2023-06-22T07:08:29;29.31;65.81
67722;SHT31;58309;45.292;11.820;2023-06-22T07:10:54;29.64;67.81
67722;SHT31;58309;45.292;11.820;2023-06-22T07:13:20;29.63;66.99
67722;SHT31;58309;45.292;11.820;2023-06-22T07:15:45;29.78;67.12
67722;SHT31;58309;45.292;11.820;2023-06-22T07:18:10;29.91;66.96
67722;SHT31;58309;45.292;11.820;2023-06-22T07:20:36;30.08;66.51
67722;SHT31;58309;45.292;11.820;2023-06-22T07:23:02;30.15;65.92
67722;SHT31;58309;45.292;11.820;2023-06-22T07:25:28;30.32;64.81
67722;SHT31;58309;45.292;11.820;2023-06-22T07:28:02;30.49;66.36
67722;SHT31;58309;45.292;11.820;2023-06-22T07:30:28;30.63;64.03
67722;SHT31;58309;45.292;11.820;2023-06-22T07:32:54;30.79;62.59
67722;SHT31;58309;45.292;11.820;2023-06-22T07:35:20;30.84;62.74
67722;SHT31;58309;45.292;11.820;2023-06-22T07:37:46;31.21;62.68
67722;SHT31;58309;45.292;11.820;2023-06-22T07:40:11;31.21;62.41
67722;SHT31;58309;45.292;11.820;2023-06-22T07:42:37;31.21;62.28
67722;SHT31;58309;45.292;11.820;2023-06-22T07:45:04;31.48;59.70
67722;SHT31;58309;45.292;11.820;2023-06-22T07:47:30;31.75;59.61
67722;SHT31;58309;45.292;11.820;2023-06-22T07:49:58;31.72;60.46
67722;SHT31;58309;45.292;11.820;2023-06-22T07:52:26;31.76;58.05
67722;SHT31;58309;45.292;11.820;2023-06-22T07:54:52;31.92;58.55
67722;SHT31;58309;45.292;11.820;2023-06-22T07:57:17;32.31;56.81
67722;SHT31;58309;45.292;11.820;2023-06-22T07:59:44;32.16;55.58
67722;SHT31;58309;45.292;11.820;2023-06-22T08:02:09;32.24;57.03
67722;SHT31;58309;45.292;11.820;2023-06-22T08:04:35;32.54;56.54
67722;SHT31;58309;45.292;11.820;2023-06-22T08:07:01;32.97;57.40
67722;SHT31;58309;45.292;11.820;2023-06-22T08:09:31;33.00;57.60
67722;SHT31;58309;45.292;11.820;2023-06-22T08:11:57;33.31;54.69
67722;SHT31;58309;45.292;11.820;2023-06-22T08:14:26;33.65;55.96
67722;SHT31;58309;45.292;11.820;2023-06-22T08:16:52;33.80;51.44
67722;SHT31;58309;45.292;11.820;2023-06-22T08:19:17;33.93;51.58
67722;SHT31;58309;45.292;11.820;2023-06-22T08:21:43;34.03;53.19
67722;SHT31;58309;45.292;11.820;2023-06-22T08:24:09;34.17;50.96
67722;SHT31;58309;45.292;11.820;2023-06-22T08:26:34;33.93;52.51
67722;SHT31;58309;45.292;11.820;2023-06-22T08:29:05;34.14;51.81
67722;SHT31;58309;45.292;11.820;2023-06-22T08:31:31;34.28;51.89
67722;SHT31;58309;45.292;11.820;2023-06-22T08:33:58;33.80;52.13
67722;SHT31;58309;45.292;11.820;2023-06-22T08:36:23;33.60;53.55
67722;SHT31;58309;45.292;11.820;2023-06-22T08:38:49;33.38;53.78
67722;SHT31;58309;45.292;11.820;2023-06-22T08:41:17;33.41;54.24
67722;SHT31;58309;45.292;11.820;2023-06-22T08:43:43;33.43;54.15
67722;SHT31;58309;45.292;11.820;2023-06-22T08:46:09;34.33;51.76
67722;SHT31;58309;45.292;11.820;2023-06-22T08:48:35;34.71;50.52
67722;SHT31;58309;45.292;11.820;2023-06-22T08:51:00;35.26;48.82
67722;SHT31;58309;45.292;11.820;2023-06-22T08:53:26;35.77;48.76
67722;SHT31;58309;45.292;11.820;2023-06-22T08:55:51;35.54;51.15
67722;SHT31;58309;45.292;11.820;2023-06-22T08:58:17;36.01;48.03
67722;SHT31;58309;45.292;11.820;2023-06-22T09:00:43;36.45;47.22
67722;SHT31;58309;45.292;11.820;2023-06-22T09:03:08;36.86;46.90
67722;SHT31;58309;45.292;11.820;2023-06-22T09:05:34;37.33;45.87
67722;SHT31;58309;45.292;11.820;2023-06-22T09:07:59;37.33;46.16
67722;SHT31;58309;45.292;11.820;2023-06-22T09:10:25;37.20;45.84
67722;SHT31;58309;45.292;11.820;2023-06-22T09:12:51;37.67;45.87
67722;SHT31;58309;45.292;11.820;2023-06-22T09:15:16;37.25;46.94
67722;SHT31;58309;45.292;11.820;2023-06-22T09:17:42;37.88;46.49
67722;SHT31;58309;45.292;11.820;2023-06-22T09:20:08;38.55;43.95
67722;SHT31;58309;45.292;11.820;2023-06-22T09:22:35;39.24;41.10
67722;SHT31;58309;45.292;11.820;2023-06-22T09:25:01;38.51;42.50
67722;SHT31;58309;45.292;11.820;2023-06-22T09:27:28;38.39;43.42
67722;SHT31;58309;45.292;11.820;2023-06-22T09:29:53;39.04;42.72
67722;SHT31;58309;45.292;11.820;2023-06-22T09:32:18;39.68;42.97
67722;SHT31;58309;45.292;11.820;2023-06-22T09:34:44;39.65;41.44
67722;SHT31;58309;45.292;11.820;2023-06-22T09:37:09;40.12;40.94
67722;SHT31;58309;45.292;11.820;2023-06-22T09:39:35;40.15;41.35
67722;SHT31;58309;45.292;11.820;2023-06-22T09:42:02;39.06;42.73
67722;SHT31;58309;45.292;11.820;2023-06-22T09:44:27;39.69;42.46
67722;SHT31;58309;45.292;11.820;2023-06-22T09:46:53;39.02;43.82
67722;SHT31;58309;45.292;11.820;2023-06-22T09:49:18;38.24;45.25
67722;SHT31;58309;45.292;11.820;2023-06-22T09:51:43;38.31;45.20
67722;SHT31;58309;45.292;11.820;2023-06-22T09:54:09;38.59;44.42
67722;SHT31;58309;45.292;11.820;2023-06-22T09:56:34;38.33;44.44
67722;SHT31;58309;45.292;11.820;2023-06-22T09:59:00;37.81;44.68
67722;SHT31;58309;45.292;11.820;2023-06-22T10:01:25;37.67;45.72
67722;SHT31;58309;45.292;11.820;2023-06-22T10:03:52;37.64;45.85
67722;SHT31;58309;45.292;11.820;2023-06-22T10:06:21;38.02;44.71
67722;SHT31;58309;45.292;11.820;2023-06-22T10:08:46;38.00;45.79
67722;SHT31;58309;45.292;11.820;2023-06-22T10:11:13;38.60;43.57
67722;SHT31;58309;45.292;11.820;2023-06-22T10:13:40;39.41;43.68
67722;SHT31;58309;45.292;11.820;2023-06-22T10:16:05;40.43;40.55
67722;SHT31;58309;45.292;11.820;2023-06-22T10:18:30;40.26;43.99
67722;SHT31;58309;45.292;11.820;2023-06-22T10:20:56;41.25;40.29
67722;SHT31;58309;45.292;11.820;2023-06-22T10:23:21;41.46;38.56
67722;SHT31;58309;45.292;11.820;2023-06-22T10:25:47;41.31;40.30
67722;SHT31;58309;45.292;11.820;2023-06-22T10:28:13;40.91;38.57
67722;SHT31;58309;45.292;11.820;2023-06-22T10:30:39;40.70;37.53
67722;SHT31;58309;45.292;11.820;2023-06-22T10:33:09;40.52;38.10
67722;SHT31;58309;45.292;11.820;2023-06-22T10:35:35;40.23;38.40
67722;SHT31;58309;45.292;11.820;2023-06-22T10:38:03;39.91;39.75
67722;SHT31;58309;45.292;11.820;2023-06-22T10:40:28;38.46;43.16
67722;SHT31;58309;45.292;11.820;2023-06-22T10:42:54;40.33;40.83
67722;SHT31;58309;45.292;11.820;2023-06-22T10:45:19;40.17;38.67
67722;SHT31;58309;45.292;11.820;2023-06-22T10:47:45;40.68;37.16
67722;SHT31;58309;45.292;11.820;2023-06-22T10:50:11;40.53;38.75
67722;SHT31;58309;45.292;11.820;2023-06-22T10:52:36;40.24;39.08
67722;SHT31;58309;45.292;11.820;2023-06-22T10:55:02;41.28;38.39
67722;SHT31;58309;45.292;11.820;2023-06-22T10:57:27;41.22;37.02
67722;SHT31;58309;45.292;11.820;2023-06-22T10:59:53;40.81;38.67
67722;SHT31;58309;45.292;11.820;2023-06-22T11:02:18;41.52;39.84
67722;SHT31;58309;45.292;11.820;2023-06-22T11:04:44;41.32;37.08
67722;SHT31;58309;45.292;11.820;2023-06-22T11:07:09;40.80;37.44
67722;SHT31;58309;45.292;11.820;2023-06-22T11:09:35;40.95;40.45
67722;SHT31;58309;45.292;11.820;2023-06-22T11:12:00;41.62;37.03
67722;SHT31;58309;45.292;11.820;2023-06-22T11:14:26;41.96;34.79
67722;SHT31;58309;45.292;11.820;2023-06-22T11:16:52;41.76;36.26
67722;SHT31;58309;45.292;11.820;2023-06-22T11:19:18;41.83;35.95
67722;SHT31;58309;45.292;11.820;2023-06-22T11:21:44;41.25;36.07
67722;SHT31;58309;45.292;11.820;2023-06-22T11:24:09;41.12;37.57
67722;SHT31;58309;45.292;11.820;2023-06-22T11:26:35;41.15;36.30
67722;SHT31;58309;45.292;11.820;2023-06-22T11:29:01;41.08;37.13
67722;SHT31;58309;45.292;11.820;2023-06-22T11:31:30;40.79;38.12
67722;SHT31;58309;45.292;11.820;2023-06-22T11:33:55;40.53;38.34
67722;SHT31;58309;45.292;11.820;2023-06-22T11:36:21;39.33;38.26
67722;SHT31;58309;45.292;11.820;2023-06-22T11:38:46;39.96;37.44
67722;SHT31;58309;45.292;11.820;2023-06-22T11:41:12;41.25;37.58
67722;SHT31;58309;45.292;11.820;2023-06-22T11:43:37;41.04;40.29
67722;SHT31;58309;45.292;11.820;2023-06-22T11:46:03;41.43;39.31
67722;SHT31;58309;45.292;11.820;2023-06-22T11:48:30;41.41;39.50
67722;SHT31;58309;45.292;11.820;2023-06-22T11:50:56;41.34;39.46
67722;SHT31;58309;45.292;11.820;2023-06-22T11:53:24;40.70;39.85
67722;SHT31;58309;45.292;11.820;2023-06-22T11:55:50;40.81;40.87
67722;SHT31;58309;45.292;11.820;2023-06-22T11:58:16;40.67;41.02
67722;SHT31;58309;45.292;11.820;2023-06-22T12:00:41;41.12;41.00
67722;SHT31;58309;45.292;11.820;2023-06-22T12:03:07;41.28;41.16
67722;SHT31;58309;45.292;11.820;2023-06-22T12:05:33;41.11;41.51
67722;SHT31;58309;45.292;11.820;2023-06-22T12:07:58;40.84;40.56
67722;SHT31;58309;45.292;11.820;2023-06-22T12:10:25;41.79;40.05
67722;SHT31;58309;45.292;11.820;2023-06-22T12:12:50;39.99;41.20
67722;SHT31;58309;45.292;11.820;2023-06-22T12:15:16;40.60;41.32
67722;SHT31;58309;45.292;11.820;2023-06-22T12:17:41;40.46;40.98
67722;SHT31;58309;45.292;11.820;2023-06-22T12:20:08;40.43;41.63
67722;SHT31;58309;45.292;11.820;2023-06-22T12:22:34;40.24;40.59
67722;SHT31;58309;45.292;11.820;2023-06-22T12:25:00;40.32;39.99
67722;SHT31;58309;45.292;11.820;2023-06-22T12:27:25;40.15;40.16
67722;SHT31;58309;45.292;11.820;2023-06-22T12:29:51;39.54;40.45
67722;SHT31;58309;45.292;11.820;2023-06-22T12:32:17;39.06;42.12
67722;SHT31;58309;45.292;11.820;2023-06-22T12:34:43;38.63;42.98
67722;SHT31;58309;45.292;11.820;2023-06-22T12:37:10;38.08;42.53
67722;SHT31;58309;45.292;11.820;2023-06-22T12:39:35;37.34;43.40
67722;SHT31;58309;45.292;11.820;2023-06-22T12:42:01;37.12;43.96
67722;SHT31;58309;45.292;11.820;2023-06-22T12:44:26;36.72;46.45
67722;SHT31;58309;45.292;11.820;2023-06-22T12:46:52;36.29;45.64
67722;SHT31;58309;45.292;11.820;2023-06-22T12:49:17;36.20;47.25
67722;SHT31;58309;45.292;11.820;2023-06-22T12:51:43;36.15;48.85
67722;SHT31;58309;45.292;11.820;2023-06-22T12:54:10;35.54;48.99
67722;SHT31;58309;45.292;11.820;2023-06-22T12:56:37;35.78;48.56
67722;SHT31;58309;45.292;11.820;2023-06-22T12:59:03;35.84;47.60
67722;SHT31;58309;45.292;11.820;2023-06-22T13:01:28;35.59;47.20
67722;SHT31;58309;45.292;11.820;2023-06-22T13:03:56;35.49;48.79
67722;SHT31;58309;45.292;11.820;2023-06-22T13:06:21;35.43;50.89
67722;SHT31;58309;45.292;11.820;2023-06-22T13:08:47;35.50;48.84
67722;SHT31;58309;45.292;11.820;2023-06-22T13:11:12;35.57;49.41
67722;SHT31;58309;45.292;11.820;2023-06-22T13:13:39;35.47;48.79
67722;SHT31;58309;45.292;11.820;2023-06-22T13:16:04;35.42;47.68
67722;SHT31;58309;45.292;11.820;2023-06-22T13:18:30;35.08;48.73
67722;SHT31;58309;45.292;11.820;2023-06-22T13:20:55;34.85;51.29
67722;SHT31;58309;45.292;11.820;2023-06-22T13:23:21;34.67;51.22
67722;SHT31;58309;45.292;11.820;2023-06-22T13:25:47;34.98;49.70
67722;SHT31;58309;45.292;11.820;2023-06-22T13:28:12;34.92;50.10
67722;SHT31;58309;45.292;11.820;2023-06-22T13:30:40;34.85;50.26
67722;SHT31;58309;45.292;11.820;2023-06-22T13:33:05;34.31;50.97
67722;SHT31;58309;45.292;11.820;2023-06-22T13:35:31;34.52;51.53
67722;SHT31;58309;45.292;11.820;2023-06-22T13:37:56;34.71;50.23
67722;SHT31;58309;45.292;11.820;2023-06-22T13:40:22;34.71;48.69
67722;SHT31;58309;45.292;11.820;2023-06-22T13:42:47;34.75;50.34
67722;SHT31;58309;45.292;11.820;2023-06-22T13:45:13;34.91;50.29
67722;SHT31;58309;45.292;11.820;2023-06-22T13:47:39;35.08;49.30
67722;SHT31;58309;45.292;11.820;2023-06-22T13:50:05;35.03;50.04
67722;SHT31;58309;45.292;11.820;2023-06-22T13:52:31;35.09;49.52
67722;SHT31;58309;45.292;11.820;2023-06-22T13:54:56;34.79;49.32
67722;SHT31;58309;45.292;11.820;2023-06-22T13:57:22;34.89;50.67
67722;SHT31;58309;45.292;11.820;2023-06-22T13:59:47;34.92;49.83
67722;SHT31;58309;45.292;11.820;2023-06-22T14:02:13;34.74;49.68
67722;SHT31;58309;45.292;11.820;2023-06-22T14:04:38;34.89;49.94
67722;SHT31;58309;45.292;11.820;2023-06-22T14:07:04;35.16;50.16
67722;SHT31;58309;45.292;11.820;2023-06-22T14:09:30;35.45;49.59
67722;SHT31;58309;45.292;11.820;2023-06-22T14:11:55;35.76;49.98
67722;SHT31;58309;45.292;11.820;2023-06-22T14:14:21;35.97;49.00
67722;SHT31;58309;45.292;11.820;2023-06-22T14:16:47;35.98;48.00
67722;SHT31;58309;45.292;11.820;2023-06-22T14:19:14;36.17;49.26
67722;SHT31;58309;45.292;11.820;2023-06-22T14:21:39;36.37;48.98
67722;SHT31;58309;45.292;11.820;2023-06-22T14:24:05;36.15;47.72
67722;SHT31;58309;45.292;11.820;2023-06-22T14:26:30;36.01;48.25
67722;SHT31;58309;45.292;11.820;2023-06-22T14:28:56;35.76;48.20
67722;SHT31;58309;45.292;11.820;2023-06-22T14:31:22;35.59;48.46
67722;SHT31;58309;45.292;11.820;2023-06-22T14:33:48;35.77;48.67
67722;SHT31;58309;45.292;11.820;2023-06-22T14:36:15;34.88;49.86
67722;SHT31;58309;45.292;11.820;2023-06-22T14:38:40;35.26;49.72
67722;SHT31;58309;45.292;11.820;2023-06-22T14:41:06;35.40;49.79
67722;SHT31;58309;45.292;11.820;2023-06-22T14:43:31;35.28;50.27
67722;SHT31;58309;45.292;11.820;2023-06-22T14:45:57;35.49;48.30
67722;SHT31;58309;45.292;11.820;2023-06-22T14:48:22;35.61;48.37
67722;SHT31;58309;45.292;11.820;2023-06-22T14:50:48;35.78;48.83
67722;SHT31;58309;45.292;11.820;2023-06-22T14:53:14;35.84;48.65
67722;SHT31;58309;45.292;11.820;2023-06-22T14:55:40;35.26;50.21
67722;SHT31;58309;45.292;11.820;2023-06-22T14:58:05;35.45;49.83
67722;SHT31;58309;45.292;11.820;2023-06-22T15:00:31;35.20;49.13
67722;SHT31;58309;45.292;11.820;2023-06-22T15:02:57;34.95;50.73
67722;SHT31;58309;45.292;11.820;2023-06-22T15:05:24;34.71;50.21
67722;SHT31;58309;45.292;11.820;2023-06-22T15:07:49;34.47;50.93
67722;SHT31;58309;45.292;11.820;2023-06-22T15:10:15;34.40;51.20
67722;SHT31;58309;45.292;11.820;2023-06-22T15:12:40;34.50;51.26
67722;SHT31;58309;45.292;11.820;2023-06-22T15:15:06;34.45;51.84
67722;SHT31;58309;45.292;11.820;2023-06-22T15:17:32;33.96;52.81
67722;SHT31;58309;45.292;11.820;2023-06-22T15:19:58;34.11;51.85
67722;SHT31;58309;45.292;11.820;2023-06-22T15:22:23;34.17;51.51
67722;SHT31;58309;45.292;11.820;2023-06-22T15:24:49;34.37;52.61